This is the latest recevied weather packets stored in our database for station/object SP5IZJ-2. If no packets are shown the sender has not sent any weather packets the latest 10 day(s).
| Time | Temp. | Humidity | Pressure | Rain* | Wind** | Luminosity | Snow |
|---|---|---|---|---|---|---|---|
| 1787592611 | 16.67° C | 69% | 1012.5 hPa | 0 mm | - | - | - |
| 1787592229 | 17.78° C | 65% | 1012.6 hPa | 0 mm | - | - | - |
| 1787591360 | 21.11° C | 60% | 1012.8 hPa | 0 mm | - | - | - |
| 1787590520 | 21.67° C | 58% | 1012.7 hPa | 0 mm | - | - | - |
| 1787589710 | 22.78° C | 56% | 1012.9 hPa | 0 mm | - | - | - |
| 1787588454 | 22.78° C | 60% | 1013 hPa | 0 mm | - | - | - |
| 1787588417 | 22.78° C | 60% | 1013 hPa | 0 mm | - | - | - |
| 1787588026 | 21.67° C | 65% | 1013 hPa | 0 mm | - | - | - |
| 1787587635 | 18.33° C | 73% | 1013.3 hPa | 0 mm | - | - | - |
| 1787587153 | 17.78° C | 74% | 1013.2 hPa | 0 mm | - | - | - |
| 1787586351 | 17.78° C | 73% | 1013.2 hPa | 0 mm | - | - | - |
| 1787586314 | 17.78° C | 73% | 1013.2 hPa | 0 mm | - | - | - |
| 1787585474 | 17.78° C | 71% | 1013.3 hPa | 0 mm | - | - | - |
| 1787585064 | 18.33° C | 70% | 1013.3 hPa | 0 mm | - | - | - |
| 1787583795 | 17.78° C | 70% | 1013.2 hPa | 0 mm | - | - | - |
| 1787583375 | 18.33° C | 70% | 1013.2 hPa | 0 mm | - | - | - |
| 1787582539 | 18.89° C | 69% | 1013.1 hPa | 0 mm | - | - | - |
| 1787581699 | 19.44° C | 66% | 1013.2 hPa | 0 mm | - | - | - |
| 1787580860 | 22.22° C | 62% | 1013 hPa | 0 mm | - | - | - |
| 1787580440 | 21.67° C | 63% | 1013 hPa | 0 mm | - | - | - |
| 1787580052 | 22.22° C | 63% | 1012.9 hPa | 0 mm | - | - | - |
| 1787579596 | 20.56° C | 68% | 1012.9 hPa | 0 mm | - | - | - |
| 1787579182 | 20.56° C | 69% | 1013 hPa | 0 mm | - | - | - |
| 1787578761 | 18.89° C | 74% | 1012.9 hPa | 0 mm | - | - | - |
| 1787577497 | 15.56° C | 77% | 1013.2 hPa | 0 mm | - | - | - |
* Rain latest hour (hover to see other rain measurements)
** Current wind speed in m/s (hover to see current wind gust speed)